createdAt,value
2023-04-09T00:00:22.779Z,100806.19
2023-04-09T00:02:49.245Z,100812.56
2023-04-09T00:05:15.858Z,100815.44
2023-04-09T00:07:44.360Z,100811.88
2023-04-09T00:10:11.171Z,100819.06
2023-04-09T00:12:37.630Z,100823.38
2023-04-09T00:15:04.340Z,100820.69
2023-04-09T00:17:30.797Z,100824.25
2023-04-09T00:19:57.244Z,100821.75
2023-04-09T00:22:23.720Z,100819.06
2023-04-09T00:24:50.186Z,100821.66
2023-04-09T00:27:16.749Z,100819.81
2023-04-09T00:29:43.247Z,100822.59
2023-04-09T00:32:09.738Z,100826.56
2023-04-09T00:34:36.242Z,100822.22
2023-04-09T00:37:02.677Z,100823.88
2023-04-09T00:39:29.106Z,100824.25
2023-04-09T00:41:57.023Z,100819.69
2023-04-09T00:44:23.468Z,100825.56
2023-04-09T00:46:49.933Z,100825.66
2023-04-09T00:49:16.743Z,100827.38
2023-04-09T00:51:45.044Z,100814.94
2023-04-09T00:54:12.039Z,100823.91
2023-04-09T00:56:38.587Z,100824.63
2023-04-09T00:59:05.051Z,100822.03
2023-04-09T01:03:57.975Z,100821.75
2023-04-09T01:06:45.376Z,100815.47
2023-04-09T01:09:20.581Z,100815.38
2023-04-09T01:12:04.147Z,100819.69
2023-04-09T01:14:38.922Z,100820.03
2023-04-09T01:17:11.131Z,100822.03
2023-04-09T01:19:54.015Z,100824.78
2023-04-09T01:22:31.486Z,100821.41
2023-04-09T01:25:42.651Z,100819.78
2023-04-09T01:28:23.740Z,100824.00
2023-04-09T01:30:56.940Z,100818.03
2023-04-09T01:33:25.348Z,100823.97
2023-04-09T01:35:53.631Z,100821.28
2023-04-09T01:38:21.711Z,100827.66
2023-04-09T01:40:50.230Z,100825.19
2023-04-09T01:43:17.797Z,100824.78
2023-04-09T01:45:45.188Z,100830.69
2023-04-09T01:48:13.974Z,100830.34
2023-04-09T01:50:40.679Z,100833.63
2023-04-09T01:53:07.577Z,100827.34
2023-04-09T01:55:34.027Z,100823.09
2023-04-09T01:58:00.488Z,100836.22
2023-04-09T02:00:35.102Z,100827.47
2023-04-09T02:03:29.153Z,100833.13
2023-04-09T02:06:12.358Z,100819.47
2023-04-09T02:08:39.307Z,100823.78
2023-04-09T02:11:09.893Z,100813.25
2023-04-09T02:13:40.108Z,100816.19
2023-04-09T02:16:07.584Z,100815.00
2023-04-09T02:18:34.075Z,100808.50
2023-04-09T02:21:00.922Z,100815.59
2023-04-09T02:23:27.380Z,100807.50
2023-04-09T02:25:54.100Z,100817.00
2023-04-09T02:28:20.616Z,100803.59
2023-04-09T02:30:47.103Z,100806.19
2023-04-09T02:33:13.595Z,100808.78
2023-04-09T02:35:40.122Z,100810.53
2023-04-09T02:38:06.645Z,100806.63
2023-04-09T02:40:33.065Z,100804.84
2023-04-09T02:42:59.529Z,100813.06
2023-04-09T02:45:25.979Z,100810.56
2023-04-09T02:47:52.489Z,100809.09
2023-04-09T02:50:19.192Z,100804.94
2023-04-09T02:52:48.438Z,100809.13
2023-04-09T02:55:15.435Z,100812.50
2023-04-09T02:57:41.946Z,100812.25
2023-04-09T03:00:09.482Z,100812.78
2023-04-09T03:02:35.971Z,100802.25
2023-04-09T03:05:02.930Z,100810.84
2023-04-09T03:07:29.460Z,100802.66
2023-04-09T03:09:55.904Z,100803.28
2023-04-09T03:12:22.486Z,100796.66
2023-04-09T03:14:48.934Z,100800.22
2023-04-09T03:17:15.378Z,100800.50
2023-04-09T03:19:41.867Z,100799.00
2023-04-09T03:22:08.326Z,100804.09
2023-04-09T03:24:34.808Z,100801.19
2023-04-09T03:27:01.264Z,100807.22
2023-04-09T03:29:27.701Z,100806.09
2023-04-09T03:31:54.175Z,100803.34
2023-04-09T03:34:20.658Z,100806.81
2023-04-09T03:36:47.145Z,100801.53
2023-04-09T03:39:13.585Z,100807.69
2023-04-09T03:41:40.046Z,100808.53
2023-04-09T03:44:06.523Z,100803.94
2023-04-09T03:46:33.067Z,100806.00
2023-04-09T03:48:59.620Z,100816.38
2023-04-09T03:51:26.066Z,100810.34
2023-04-09T03:53:52.744Z,100816.66
2023-04-09T03:56:19.274Z,100818.47
2023-04-09T03:58:45.691Z,100820.81
2023-04-09T04:01:12.125Z,100819.84
2023-04-09T04:03:38.766Z,100817.94
2023-04-09T04:06:05.553Z,100816.81
2023-04-09T04:08:31.998Z,100816.75
2023-04-09T04:11:04.045Z,100819.34
2023-04-09T04:13:30.561Z,100820.38
2023-04-09T04:15:57.152Z,100827.13
2023-04-09T04:18:23.626Z,100825.22
2023-04-09T04:20:50.093Z,100825.13
2023-04-09T04:23:16.528Z,100822.78
2023-04-09T04:25:43.048Z,100822.63
2023-04-09T04:28:09.486Z,100821.66
2023-04-09T04:30:35.971Z,100821.28
2023-04-09T04:33:02.517Z,100824.16
2023-04-09T04:35:29.075Z,100825.31
2023-04-09T04:37:55.550Z,100825.13
2023-04-09T04:40:22.197Z,100829.00
2023-04-09T04:42:48.625Z,100824.34
2023-04-09T04:45:15.145Z,100828.00
2023-04-09T04:47:41.662Z,100834.38
2023-04-09T04:50:08.894Z,100826.16
2023-04-09T04:52:36.366Z,100828.75
2023-04-09T04:55:02.715Z,100833.59
2023-04-09T04:57:29.192Z,100829.28
2023-04-09T04:59:55.637Z,100837.34
2023-04-09T05:02:22.274Z,100831.78
2023-04-09T05:04:48.820Z,100826.94
2023-04-09T05:07:16.011Z,100824.06
2023-04-09T05:09:42.458Z,100831.19
2023-04-09T05:12:08.902Z,100827.63
2023-04-09T05:14:35.369Z,100830.75
2023-04-09T05:17:01.924Z,100837.84
2023-04-09T05:19:28.417Z,100826.94
2023-04-09T05:21:54.871Z,100847.53
2023-04-09T05:24:21.328Z,100846.13
2023-04-09T05:26:47.857Z,100840.59
2023-04-09T05:29:14.335Z,100841.78
2023-04-09T05:31:40.778Z,100841.50
2023-04-09T05:34:07.271Z,100842.38
2023-04-09T05:36:33.777Z,100848.84
2023-04-09T05:39:00.242Z,100841.09
2023-04-09T05:41:26.681Z,100848.66
2023-04-09T05:43:53.444Z,100842.94
2023-04-09T05:46:20.128Z,100845.25
2023-04-09T05:48:46.576Z,100854.34
2023-04-09T05:51:13.012Z,100846.84
2023-04-09T05:53:39.493Z,100846.06
2023-04-09T05:56:16.004Z,100852.13
2023-04-09T05:58:42.899Z,100843.59
2023-04-09T06:01:09.458Z,100840.06
2023-04-09T06:03:36.123Z,100851.81
2023-04-09T06:06:02.684Z,100845.25
2023-04-09T06:08:29.167Z,100853.44
2023-04-09T06:10:55.604Z,100851.06
2023-04-09T06:13:22.158Z,100848.28
2023-04-09T06:15:48.660Z,100855.09
2023-04-09T06:18:15.183Z,100849.69
2023-04-09T06:20:41.677Z,100851.81
2023-04-09T06:23:08.117Z,100856.00
2023-04-09T06:25:35.886Z,100850.53
2023-04-09T06:28:02.486Z,100854.38
2023-04-09T06:30:29.563Z,100859.28
2023-04-09T06:32:56.033Z,100853.41
2023-04-09T06:35:23.038Z,100862.84
2023-04-09T06:37:49.525Z,100861.97
2023-04-09T06:40:16.075Z,100864.41
2023-04-09T06:42:42.599Z,100864.97
2023-04-09T06:45:09.541Z,100872.72
2023-04-09T06:47:36.370Z,100863.53
2023-04-09T06:50:03.389Z,100872.47
2023-04-09T06:52:29.960Z,100869.88
2023-04-09T06:54:56.395Z,100867.78
2023-04-09T06:57:22.900Z,100875.94
2023-04-09T06:59:49.392Z,100868.06
2023-04-09T07:02:16.016Z,100877.09
2023-04-09T07:04:42.670Z,100878.41
2023-04-09T07:07:09.429Z,100877.19
2023-04-09T07:09:35.934Z,100875.72
2023-04-09T07:12:02.458Z,100888.41
2023-04-09T07:14:29.017Z,100883.13
2023-04-09T07:16:55.466Z,100881.03
2023-04-09T07:19:21.971Z,100879.00
2023-04-09T07:21:48.447Z,100878.81
2023-04-09T07:24:14.905Z,100892.22
2023-04-09T07:26:41.367Z,100881.00
2023-04-09T07:29:07.820Z,100878.28
2023-04-09T07:31:35.854Z,100890.41
2023-04-09T07:34:02.609Z,100888.19
2023-04-09T07:36:29.108Z,100888.69
2023-04-09T07:38:55.607Z,100899.81
2023-04-09T07:41:22.174Z,100902.16
2023-04-09T07:43:48.648Z,100898.69
2023-04-09T07:46:21.440Z,100897.41
2023-04-09T07:48:48.484Z,100901.84
2023-04-09T07:51:15.136Z,100904.34
2023-04-09T07:53:41.590Z,100902.41
2023-04-09T07:56:08.119Z,100904.75
2023-04-09T07:58:34.574Z,100894.72
2023-04-09T08:01:01.022Z,100899.31
2023-04-09T08:03:27.724Z,100899.34
2023-04-09T08:05:54.459Z,100895.31
2023-04-09T08:08:20.904Z,100902.50
2023-04-09T08:10:47.347Z,100896.94
2023-04-09T08:13:13.820Z,100907.00
2023-04-09T08:15:41.438Z,100905.72
2023-04-09T08:18:07.935Z,100911.13
2023-04-09T08:20:34.697Z,100910.69
2023-04-09T08:23:01.176Z,100901.84
2023-04-09T08:25:27.656Z,100911.34
2023-04-09T08:27:54.058Z,100921.91
2023-04-09T08:30:20.563Z,100922.00
2023-04-09T08:32:47.067Z,100913.50
2023-04-09T08:35:13.608Z,100920.16
2023-04-09T08:37:40.056Z,100923.75
2023-04-09T08:40:07.254Z,100925.56
2023-04-09T08:42:34.544Z,100932.03
2023-04-09T08:45:04.324Z,100933.66
2023-04-09T08:47:32.404Z,100931.94
2023-04-09T08:49:59.269Z,100932.81
2023-04-09T08:52:32.730Z,100935.13
2023-04-09T08:54:59.406Z,100933.78
2023-04-09T08:57:26.648Z,100930.00
2023-04-09T08:59:53.140Z,100928.16
2023-04-09T09:02:19.651Z,100924.78
2023-04-09T09:04:47.780Z,100924.06
2023-04-09T09:07:15.794Z,100923.97
2023-04-09T09:09:55.818Z,100925.28
2023-04-09T09:12:38.426Z,100922.78
2023-04-09T09:15:28.302Z,100920.84
2023-04-09T09:17:56.965Z,100923.00
2023-04-09T09:20:24.300Z,100926.59
2023-04-09T09:22:55.722Z,100920.25
2023-04-09T09:25:22.970Z,100922.44
2023-04-09T09:27:49.453Z,100926.47
2023-04-09T09:30:42.520Z,100914.41
2023-04-09T09:33:10.565Z,100915.63
2023-04-09T09:35:54.014Z,100920.06
2023-04-09T09:38:20.869Z,100911.59
2023-04-09T09:40:47.906Z,100916.50
2023-04-09T09:43:14.700Z,100912.28
2023-04-09T09:45:42.038Z,100918.88
2023-04-09T09:48:11.373Z,100914.06
2023-04-09T09:50:39.021Z,100919.19
2023-04-09T09:53:06.797Z,100912.28
2023-04-09T09:55:37.943Z,100902.81
2023-04-09T09:58:12.543Z,100912.13
2023-04-09T10:00:40.804Z,100910.53
2023-04-09T10:03:22.832Z,100901.16
2023-04-09T10:05:50.372Z,100911.53
2023-04-09T10:08:17.972Z,100908.41
2023-04-09T10:10:45.276Z,100908.94
2023-04-09T10:13:15.188Z,100911.81
2023-04-09T10:15:41.790Z,100904.13
2023-04-09T10:18:08.594Z,100907.25
2023-04-09T10:20:54.568Z,100910.94
2023-04-09T10:23:44.328Z,100902.38
2023-04-09T10:26:11.185Z,100900.09
2023-04-09T10:28:38.027Z,100902.72
2023-04-09T10:31:05.943Z,100906.38
2023-04-09T10:33:32.481Z,100893.88
2023-04-09T10:36:10.435Z,100908.75
2023-04-09T10:38:41.788Z,100908.06
2023-04-09T10:41:22.094Z,100906.06
2023-04-09T10:43:48.653Z,100903.28
2023-04-09T10:46:31.246Z,100906.09
2023-04-09T10:49:10.826Z,100897.31
2023-04-09T10:51:38.472Z,100902.63
2023-04-09T10:54:06.207Z,100892.38
2023-04-09T10:56:33.433Z,100898.88
2023-04-09T10:58:59.883Z,100901.25
2023-04-09T11:01:26.475Z,100895.47
2023-04-09T11:04:14.808Z,100897.19
2023-04-09T11:06:44.925Z,100894.31
2023-04-09T11:09:11.380Z,100896.09
2023-04-09T11:11:37.860Z,100902.69
2023-04-09T11:14:04.482Z,100901.16
2023-04-09T11:16:31.611Z,100893.00
2023-04-09T11:18:58.221Z,100890.19
2023-04-09T11:21:28.265Z,100893.88
2023-04-09T11:23:54.766Z,100893.13
2023-04-09T11:26:34.669Z,100897.00
2023-04-09T11:29:05.686Z,100892.78
2023-04-09T11:31:32.163Z,100900.16
2023-04-09T11:33:58.635Z,100890.53
2023-04-09T11:36:26.178Z,100891.03
2023-04-09T11:38:52.840Z,100889.09
2023-04-09T11:41:19.462Z,100887.50
2023-04-09T11:43:45.929Z,100895.03
2023-04-09T11:46:12.429Z,100882.22
2023-04-09T11:48:39.154Z,100886.13
2023-04-09T11:51:05.779Z,100877.38
2023-04-09T11:53:32.216Z,100876.53
2023-04-09T11:55:58.971Z,100876.41
2023-04-09T11:58:26.323Z,100869.56
2023-04-09T12:00:58.410Z,100875.66
2023-04-09T12:03:31.837Z,100873.16
2023-04-09T12:06:01.032Z,100872.72
2023-04-09T12:08:27.669Z,100864.66
2023-04-09T12:10:54.306Z,100862.28
2023-04-09T12:13:21.426Z,100867.97
2023-04-09T12:15:49.513Z,100858.59
2023-04-09T12:18:16.112Z,100860.56
2023-04-09T12:20:44.268Z,100850.63
2023-04-09T12:23:12.202Z,100848.84
2023-04-09T12:25:41.130Z,100853.06
2023-04-09T12:28:11.608Z,100846.56
2023-04-09T12:30:38.056Z,100847.50
2023-04-09T12:33:04.752Z,100854.53
2023-04-09T12:35:31.384Z,100847.75
2023-04-09T12:37:57.861Z,100849.38
2023-04-09T12:40:24.326Z,100846.31
2023-04-09T12:42:51.067Z,100842.81
2023-04-09T12:45:19.378Z,100836.97
2023-04-09T12:47:46.017Z,100837.81
2023-04-09T12:50:14.024Z,100834.22
2023-04-09T12:52:40.746Z,100839.22
2023-04-09T12:55:07.836Z,100835.88
2023-04-09T12:57:34.790Z,100833.94
2023-04-09T13:00:01.338Z,100835.78
2023-04-09T13:02:27.949Z,100835.00
2023-04-09T13:04:54.550Z,100832.94
2023-04-09T13:07:21.147Z,100821.50
2023-04-09T13:09:48.009Z,100826.88
2023-04-09T13:12:14.530Z,100816.84
2023-04-09T13:14:41.050Z,100822.16
2023-04-09T13:17:07.603Z,100810.94
2023-04-09T13:19:34.061Z,100824.53
2023-04-09T13:22:00.531Z,100815.72
2023-04-09T13:24:26.997Z,100821.88
2023-04-09T13:26:53.458Z,100815.47
2023-04-09T13:29:20.002Z,100812.72
2023-04-09T13:31:46.489Z,100817.75
2023-04-09T13:34:13.019Z,100814.63
2023-04-09T13:36:39.472Z,100809.00
2023-04-09T13:39:06.048Z,100810.94
2023-04-09T13:41:33.438Z,100797.22
2023-04-09T13:44:00.385Z,100802.94
2023-04-09T13:46:27.018Z,100802.00
2023-04-09T13:48:53.984Z,100799.59
2023-04-09T13:51:24.272Z,100791.41
2023-04-09T13:53:50.773Z,100797.53
2023-04-09T13:56:17.204Z,100786.78
2023-04-09T13:58:43.724Z,100787.13
2023-04-09T14:01:11.688Z,100785.91
2023-04-09T14:03:38.514Z,100785.50
2023-04-09T14:06:05.268Z,100783.44
2023-04-09T14:08:31.758Z,100781.69
2023-04-09T14:10:58.268Z,100778.88
2023-04-09T14:13:24.752Z,100771.25
2023-04-09T14:15:51.285Z,100774.16
2023-04-09T14:18:17.748Z,100782.59
2023-04-09T14:20:44.208Z,100771.63
2023-04-09T14:23:10.782Z,100771.22
2023-04-09T14:25:37.306Z,100769.59
2023-04-09T14:28:04.048Z,100764.00
2023-04-09T14:30:30.506Z,100764.69
2023-04-09T14:32:57.038Z,100761.97
2023-04-09T14:35:23.707Z,100763.97
2023-04-09T14:37:50.166Z,100753.41
2023-04-09T14:40:16.710Z,100758.88
2023-04-09T14:42:43.135Z,100760.72
2023-04-09T14:45:10.143Z,100760.25
2023-04-09T14:47:36.652Z,100759.53
2023-04-09T14:50:03.260Z,100754.97
2023-04-09T14:52:29.754Z,100751.06
2023-04-09T14:54:56.752Z,100755.22
2023-04-09T14:57:23.366Z,100746.41
2023-04-09T14:59:49.894Z,100746.91
2023-04-09T15:02:17.111Z,100740.13
2023-04-09T15:04:43.546Z,100740.31
2023-04-09T15:07:10.016Z,100741.81
2023-04-09T15:09:36.339Z,100744.25
2023-04-09T15:12:02.806Z,100740.78
2023-04-09T15:14:31.135Z,100737.03
2023-04-09T15:16:57.619Z,100743.38
2023-04-09T15:19:24.089Z,100735.47
2023-04-09T15:21:50.616Z,100729.16
2023-04-09T15:24:17.089Z,100730.59
2023-04-09T15:26:43.532Z,100732.81
2023-04-09T15:29:10.227Z,100725.47
2023-04-09T15:31:37.570Z,100725.22
2023-04-09T15:34:04.904Z,100723.25
2023-04-09T15:36:31.390Z,100723.75
2023-04-09T15:38:58.071Z,100724.72
2023-04-09T15:41:24.546Z,100720.81
2023-04-09T15:43:51.173Z,100721.44
2023-04-09T15:46:17.941Z,100713.34
2023-04-09T15:48:44.737Z,100711.88
2023-04-09T15:51:11.272Z,100712.22
2023-04-09T15:53:37.755Z,100717.50
2023-04-09T15:56:04.529Z,100712.97
2023-04-09T15:58:31.386Z,100711.13
2023-04-09T16:00:57.966Z,100708.56
2023-04-09T16:03:24.507Z,100720.47
2023-04-09T16:05:50.972Z,100719.31
2023-04-09T16:08:17.417Z,100717.22
2023-04-09T16:10:43.864Z,100712.19
2023-04-09T16:13:10.371Z,100715.13
2023-04-09T16:15:36.864Z,100708.00
2023-04-09T16:18:03.375Z,100716.47
2023-04-09T16:20:29.869Z,100713.53
2023-04-09T16:22:56.313Z,100714.50
2023-04-09T16:25:22.829Z,100722.47
2023-04-09T16:27:49.318Z,100708.16
2023-04-09T16:30:15.764Z,100709.13
2023-04-09T16:32:42.306Z,100716.63
2023-04-09T16:35:08.856Z,100711.28
2023-04-09T16:37:35.296Z,100713.94
2023-04-09T16:40:01.833Z,100712.72
2023-04-09T16:42:28.389Z,100706.28
2023-04-09T16:44:54.832Z,100713.31
2023-04-09T16:47:21.318Z,100711.13
2023-04-09T16:49:47.830Z,100711.25
2023-04-09T16:52:14.334Z,100708.56
2023-04-09T16:54:40.832Z,100710.25
2023-04-09T16:57:07.303Z,100718.47
2023-04-09T16:59:33.777Z,100713.31
2023-04-09T17:02:00.327Z,100703.81
2023-04-09T17:04:27.017Z,100715.25
2023-04-09T17:06:53.621Z,100706.72
2023-04-09T17:09:20.048Z,100715.69
2023-04-09T17:11:46.541Z,100715.81
2023-04-09T17:14:13.017Z,100719.69
2023-04-09T17:16:39.467Z,100716.13
2023-04-09T17:19:05.987Z,100724.22
2023-04-09T17:21:32.409Z,100723.59
2023-04-09T17:23:58.858Z,100718.44
2023-04-09T17:26:25.381Z,100728.38
2023-04-09T17:28:52.039Z,100730.22
2023-04-09T17:31:18.842Z,100733.13
2023-04-09T17:33:45.423Z,100725.28
2023-04-09T17:36:11.870Z,100729.69
2023-04-09T17:38:38.376Z,100732.72
2023-04-09T17:41:07.380Z,100735.66
2023-04-09T17:43:34.115Z,100737.84
2023-04-09T17:46:00.631Z,100738.03
2023-04-09T17:48:27.157Z,100746.34
2023-04-09T17:50:53.703Z,100742.41
2023-04-09T17:53:21.106Z,100738.81
2023-04-09T17:55:48.882Z,100741.34
2023-04-09T17:58:15.449Z,100737.22
2023-04-09T18:00:42.182Z,100742.97
2023-04-09T18:03:09.596Z,100747.94
2023-04-09T18:05:36.451Z,100744.13
2023-04-09T18:08:03.053Z,100747.16
2023-04-09T18:10:29.701Z,100744.59
2023-04-09T18:12:56.172Z,100746.63
2023-04-09T18:15:22.708Z,100757.53
2023-04-09T18:17:49.274Z,100761.09
2023-04-09T18:20:15.814Z,100756.22
2023-04-09T18:22:43.439Z,100752.69
2023-04-09T18:25:10.240Z,100760.97
2023-04-09T18:27:36.750Z,100753.31
2023-04-09T18:30:03.425Z,100757.97
2023-04-09T18:32:30.067Z,100752.66
2023-04-09T18:34:56.505Z,100757.59
2023-04-09T18:37:22.958Z,100761.69
2023-04-09T18:39:49.405Z,100754.56
2023-04-09T18:42:15.855Z,100757.69
2023-04-09T18:44:42.305Z,100759.44
2023-04-09T18:47:09.040Z,100763.75
2023-04-09T18:49:36.208Z,100763.53
2023-04-09T18:52:03.423Z,100772.59
2023-04-09T18:54:29.965Z,100765.59
2023-04-09T18:56:56.448Z,100763.84
2023-04-09T18:59:22.920Z,100756.53
2023-04-09T19:01:49.461Z,100761.47
2023-04-09T19:04:16.050Z,100750.59
2023-04-09T19:06:43.497Z,100756.66
2023-04-09T19:09:10.000Z,100765.50
2023-04-09T19:11:36.449Z,100760.00
2023-04-09T19:14:03.001Z,100762.69
2023-04-09T19:16:29.681Z,100754.50
2023-04-09T19:18:56.216Z,100758.91
2023-04-09T19:21:22.739Z,100758.81
2023-04-09T19:23:49.255Z,100759.03
2023-04-09T19:26:15.722Z,100758.34
2023-04-09T19:28:42.178Z,100755.88
2023-04-09T19:31:08.732Z,100762.13
2023-04-09T19:33:35.265Z,100752.63
2023-04-09T19:36:01.792Z,100750.72
2023-04-09T19:38:28.262Z,100757.91
2023-04-09T19:40:54.752Z,100758.56
2023-04-09T19:43:21.212Z,100751.66
2023-04-09T19:45:47.658Z,100752.53
2023-04-09T19:48:14.154Z,100746.28
2023-04-09T19:50:40.647Z,100749.28
2023-04-09T19:53:07.301Z,100745.84
2023-04-09T19:55:34.151Z,100746.81
2023-04-09T19:58:00.986Z,100749.94
2023-04-09T20:00:28.093Z,100747.13
2023-04-09T20:02:55.508Z,100746.38
2023-04-09T20:05:22.407Z,100751.53
2023-04-09T20:07:49.589Z,100751.09
2023-04-09T20:10:16.254Z,100740.41
2023-04-09T20:12:47.182Z,100747.72
2023-04-09T20:15:13.656Z,100746.44
2023-04-09T20:17:40.140Z,100746.56
2023-04-09T20:20:07.155Z,100737.59
2023-04-09T20:22:33.830Z,100732.44
2023-04-09T20:25:00.269Z,100736.50
2023-04-09T20:27:26.784Z,100735.72
2023-04-09T20:29:53.233Z,100737.56
2023-04-09T20:32:20.145Z,100740.69
2023-04-09T20:34:46.709Z,100734.03
2023-04-09T20:37:13.173Z,100737.41
2023-04-09T20:39:39.651Z,100748.38
2023-04-09T20:42:06.094Z,100756.84
2023-04-09T20:44:32.550Z,100789.88
2023-04-09T20:46:58.960Z,100806.16
2023-04-09T20:49:25.463Z,100803.00
2023-04-09T20:51:51.966Z,100802.16
2023-04-09T20:54:18.425Z,100805.44
2023-04-09T20:56:44.907Z,100800.72
2023-04-09T20:59:11.379Z,100795.66
2023-04-09T21:01:37.947Z,100789.09
2023-04-09T21:04:04.674Z,100796.50
2023-04-09T21:06:31.243Z,100790.44
2023-04-09T21:08:58.658Z,100790.50
2023-04-09T21:11:26.382Z,100794.50
2023-04-09T21:13:55.109Z,100790.25
2023-04-09T21:16:22.072Z,100776.41
2023-04-09T21:18:48.624Z,100774.41
2023-04-09T21:21:15.125Z,100766.41
2023-04-09T21:23:41.631Z,100766.53
2023-04-09T21:26:08.107Z,100761.22
2023-04-09T21:28:34.552Z,100752.59
2023-04-09T21:31:01.003Z,100749.97
2023-04-09T21:33:29.343Z,100748.03
2023-04-09T21:35:56.712Z,100738.47
2023-04-09T21:38:23.303Z,100740.28
2023-04-09T21:40:49.777Z,100740.50
2023-04-09T21:43:16.203Z,100736.56
2023-04-09T21:45:42.667Z,100745.72
2023-04-09T21:48:09.091Z,100744.97
2023-04-09T21:50:35.600Z,100741.50
2023-04-09T21:53:02.136Z,100739.00
2023-04-09T21:55:28.668Z,100745.75
2023-04-09T21:57:55.136Z,100743.38
2023-04-09T22:00:21.605Z,100746.16
2023-04-09T22:02:48.265Z,100745.44
2023-04-09T22:05:14.822Z,100746.63
2023-04-09T22:07:41.952Z,100737.88
2023-04-09T22:10:09.068Z,100737.88
2023-04-09T22:12:35.610Z,100747.56
2023-04-09T22:15:03.698Z,100731.34
2023-04-09T22:17:30.238Z,100741.25
2023-04-09T22:19:56.803Z,100736.81
2023-04-09T22:22:23.266Z,100735.75
2023-04-09T22:24:49.719Z,100729.59
2023-04-09T22:27:16.219Z,100733.72
2023-04-09T22:29:42.708Z,100737.09
2023-04-09T22:32:09.403Z,100733.84
2023-04-09T22:34:35.871Z,100734.69
2023-04-09T22:37:02.323Z,100735.09
2023-04-09T22:39:28.778Z,100732.16
2023-04-09T22:41:55.283Z,100741.66
2023-04-09T22:44:21.772Z,100734.28
2023-04-09T22:46:48.270Z,100746.31
2023-04-09T22:49:14.815Z,100736.50
2023-04-09T22:51:41.872Z,100742.94
2023-04-09T22:54:09.076Z,100741.13
2023-04-09T22:56:35.662Z,100733.53
2023-04-09T22:59:02.397Z,100732.94
2023-04-09T23:01:29.252Z,100733.41
2023-04-09T23:03:55.821Z,100725.88
2023-04-09T23:06:22.308Z,100739.44
2023-04-09T23:08:48.801Z,100729.03
2023-04-09T23:11:15.295Z,100727.44
2023-04-09T23:13:41.978Z,100726.34
2023-04-09T23:16:10.032Z,100717.34
2023-04-09T23:18:36.928Z,100717.25
2023-04-09T23:21:07.433Z,100719.06
2023-04-09T23:23:34.854Z,100723.75
2023-04-09T23:26:01.540Z,100722.78
2023-04-09T23:28:28.304Z,100715.69
2023-04-09T23:30:55.550Z,100715.69
2023-04-09T23:33:22.580Z,100712.13
2023-04-09T23:35:49.076Z,100713.22
2023-04-09T23:38:15.600Z,100707.38
2023-04-09T23:40:42.939Z,100706.03
2023-04-09T23:43:09.621Z,100704.69
2023-04-09T23:45:36.062Z,100700.34
2023-04-09T23:48:03.756Z,100695.19
2023-04-09T23:50:30.251Z,100696.34
2023-04-09T23:52:56.817Z,100701.22
2023-04-09T23:55:23.310Z,100701.22
2023-04-09T23:57:49.775Z,100696.16
